Cawood, Kentucky
Current Conditions -  °F | °C
As of 3:55 PM on Sunday 21 Dec 2014 (Local Time) from KI35 Reporting Station
Clear Clear  
Wind Chill: 50°   Ceiling: Unl
Heat Index: 50°   Visibility: 10mi
Dew Point: 30°   Wind: 0mph
Humidity: 47%   Direction: NA
Pressure: 30.1"   Gusts: NA
Location:  36.78°N, 83.23°W
Report Text: KI35 212055Z AUTO 00000KT 10SM CLR 10/M01 A3010 RMK AO1
Loading
Personal Weather Stations






























Interactive Weather Map New forecast layout! Learn more

10-Day Weather Forecast

Advertisements
Track Severe Weather on mobile